sensor_id;sensor_type;location;lat;lon;timestamp;pressure;altitude;pressure_sealevel;temperature;humidity
39411;BME280;26579;43.238;23.124;2023-08-06T00:01:21;95849.22;;;23.77;67.57
39411;BME280;26579;43.238;23.124;2023-08-06T00:03:46;95848.84;;;23.73;70.17
39411;BME280;26579;43.238;23.124;2023-08-06T00:06:13;95865.47;;;23.68;71.21
39411;BME280;26579;43.238;23.124;2023-08-06T00:08:38;95884.06;;;23.68;70.01
39411;BME280;26579;43.238;23.124;2023-08-06T00:11:04;95891.59;;;23.71;68.60
39411;BME280;26579;43.238;23.124;2023-08-06T00:13:30;95873.81;;;23.72;68.11
39411;BME280;26579;43.238;23.124;2023-08-06T00:15:56;95859.72;;;23.71;70.70
39411;BME280;26579;43.238;23.124;2023-08-06T00:18:33;95855.81;;;23.50;72.47
39411;BME280;26579;43.238;23.124;2023-08-06T00:20:58;95807.31;;;23.43;72.80
39411;BME280;26579;43.238;23.124;2023-08-06T00:23:24;95832.91;;;23.49;72.55
39411;BME280;26579;43.238;23.124;2023-08-06T00:25:50;95832.09;;;23.61;71.64
39411;BME280;26579;43.238;23.124;2023-08-06T00:28:15;95828.78;;;23.54;71.17
39411;BME280;26579;43.238;23.124;2023-08-06T00:30:41;95820.59;;;23.43;70.80
39411;BME280;26579;43.238;23.124;2023-08-06T00:33:07;95841.72;;;23.26;71.01
39411;BME280;26579;43.238;23.124;2023-08-06T00:35:33;95856.63;;;23.27;72.25
39411;BME280;26579;43.238;23.124;2023-08-06T00:37:58;95829.38;;;23.32;71.96
39411;BME280;26579;43.238;23.124;2023-08-06T00:40:24;95851.19;;;23.34;71.13
39411;BME280;26579;43.238;23.124;2023-08-06T00:42:50;95887.22;;;23.30;72.11
39411;BME280;26579;43.238;23.124;2023-08-06T00:45:16;95869.44;;;23.19;70.98
39411;BME280;26579;43.238;23.124;2023-08-06T00:47:41;95857.56;;;23.21;71.98
39411;BME280;26579;43.238;23.124;2023-08-06T00:50:08;95835.03;;;23.24;71.37
39411;BME280;26579;43.238;23.124;2023-08-06T00:52:34;95831.09;;;23.15;73.40
39411;BME280;26579;43.238;23.124;2023-08-06T00:55:01;95836.66;;;23.25;72.88
39411;BME280;26579;43.238;23.124;2023-08-06T00:57:27;95842.53;;;23.27;70.84
39411;BME280;26579;43.238;23.124;2023-08-06T00:59:53;95815.63;;;23.23;71.46
39411;BME280;26579;43.238;23.124;2023-08-06T01:02:19;95832.28;;;23.19;73.08
39411;BME280;26579;43.238;23.124;2023-08-06T01:04:45;95831.69;;;23.17;72.21
39411;BME280;26579;43.238;23.124;2023-08-06T01:07:37;95824.53;;;23.29;70.08
39411;BME280;26579;43.238;23.124;2023-08-06T01:12:45;95832.28;;;23.19;70.37
39411;BME280;26579;43.238;23.124;2023-08-06T01:15:21;95848.22;;;23.19;69.52
39411;BME280;26579;43.238;23.124;2023-08-06T01:17:48;95846.34;;;23.19;70.43
39411;BME280;26579;43.238;23.124;2023-08-06T01:20:14;95833.44;;;23.11;70.75
39411;BME280;26579;43.238;23.124;2023-08-06T01:22:40;95815.97;;;23.15;71.22
39411;BME280;26579;43.238;23.124;2023-08-06T01:25:07;95795.59;;;23.04;72.81
39411;BME280;26579;43.238;23.124;2023-08-06T01:27:49;95787.25;;;23.00;73.65
39411;BME280;26579;43.238;23.124;2023-08-06T01:30:24;95787.50;;;22.99;72.56
39411;BME280;26579;43.238;23.124;2023-08-06T01:32:54;95788.44;;;23.04;73.32
39411;BME280;26579;43.238;23.124;2023-08-06T01:35:21;95790.63;;;23.08;71.39
39411;BME280;26579;43.238;23.124;2023-08-06T01:37:48;95774.88;;;22.94;71.87
39411;BME280;26579;43.238;23.124;2023-08-06T01:40:14;95773.78;;;23.02;74.16
39411;BME280;26579;43.238;23.124;2023-08-06T01:42:40;95770.78;;;23.10;73.72
39411;BME280;26579;43.238;23.124;2023-08-06T01:45:07;95775.38;;;23.15;72.53
39411;BME280;26579;43.238;23.124;2023-08-06T01:47:34;95767.66;;;23.13;72.39
39411;BME280;26579;43.238;23.124;2023-08-06T01:49:59;95752.28;;;23.15;71.71
39411;BME280;26579;43.238;23.124;2023-08-06T01:52:25;95742.72;;;23.14;73.30
39411;BME280;26579;43.238;23.124;2023-08-06T01:54:52;95742.13;;;23.12;73.15
39411;BME280;26579;43.238;23.124;2023-08-06T01:57:17;95735.69;;;23.08;74.10
39411;BME280;26579;43.238;23.124;2023-08-06T01:59:44;95750.03;;;22.95;73.28
39411;BME280;26579;43.238;23.124;2023-08-06T02:02:09;95734.06;;;22.83;73.25
39411;BME280;26579;43.238;23.124;2023-08-06T02:04:35;95745.38;;;22.79;73.92
39411;BME280;26579;43.238;23.124;2023-08-06T02:07:01;95765.44;;;22.87;74.70
39411;BME280;26579;43.238;23.124;2023-08-06T02:09:26;95761.63;;;22.94;74.38
39411;BME280;26579;43.238;23.124;2023-08-06T02:11:52;95747.09;;;22.85;75.10
39411;BME280;26579;43.238;23.124;2023-08-06T02:14:18;95737.75;;;22.82;75.16
39411;BME280;26579;43.238;23.124;2023-08-06T02:16:44;95736.34;;;22.92;74.43
39411;BME280;26579;43.238;23.124;2023-08-06T02:19:10;95723.22;;;22.85;74.70
39411;BME280;26579;43.238;23.124;2023-08-06T02:21:36;95750.44;;;22.80;76.12
39411;BME280;26579;43.238;23.124;2023-08-06T02:24:02;95727.47;;;22.63;72.93
39411;BME280;26579;43.238;23.124;2023-08-06T02:26:29;95737.16;;;22.69;73.61
39411;BME280;26579;43.238;23.124;2023-08-06T02:28:55;95749.63;;;22.68;75.30
39411;BME280;26579;43.238;23.124;2023-08-06T02:31:21;95758.16;;;22.82;74.71
39411;BME280;26579;43.238;23.124;2023-08-06T02:33:47;95753.78;;;22.76;74.48
39411;BME280;26579;43.238;23.124;2023-08-06T02:36:12;95720.78;;;22.60;75.29
39411;BME280;26579;43.238;23.124;2023-08-06T02:38:38;95729.66;;;22.54;76.57
39411;BME280;26579;43.238;23.124;2023-08-06T02:41:04;95737.53;;;22.60;75.53
39411;BME280;26579;43.238;23.124;2023-08-06T02:43:30;95743.53;;;22.56;76.53
39411;BME280;26579;43.238;23.124;2023-08-06T02:46:00;95758.50;;;22.62;76.06
39411;BME280;26579;43.238;23.124;2023-08-06T02:48:26;95752.28;;;22.56;75.50
39411;BME280;26579;43.238;23.124;2023-08-06T02:50:52;95748.47;;;22.52;76.18
39411;BME280;26579;43.238;23.124;2023-08-06T02:53:18;95729.91;;;22.52;76.74
39411;BME280;26579;43.238;23.124;2023-08-06T02:55:48;95734.41;;;22.64;76.27
39411;BME280;26579;43.238;23.124;2023-08-06T02:58:16;95747.44;;;22.77;75.13
39411;BME280;26579;43.238;23.124;2023-08-06T03:01:06;95752.06;;;22.70;74.89
39411;BME280;26579;43.238;23.124;2023-08-06T03:03:38;95744.31;;;22.56;74.04
39411;BME280;26579;43.238;23.124;2023-08-06T03:06:06;95751.00;;;22.47;76.05
39411;BME280;26579;43.238;23.124;2023-08-06T03:08:41;95755.03;;;22.50;75.94
39411;BME280;26579;43.238;23.124;2023-08-06T03:11:07;95787.00;;;22.67;75.70
39411;BME280;26579;43.238;23.124;2023-08-06T03:13:33;95790.47;;;22.55;76.57
39411;BME280;26579;43.238;23.124;2023-08-06T03:16:00;95772.22;;;22.59;75.85
39411;BME280;26579;43.238;23.124;2023-08-06T03:18:28;95767.50;;;22.49;75.83
39411;BME280;26579;43.238;23.124;2023-08-06T03:20:57;95782.84;;;22.59;76.93
39411;BME280;26579;43.238;23.124;2023-08-06T03:23:26;95784.81;;;22.64;76.08
39411;BME280;26579;43.238;23.124;2023-08-06T03:25:53;95779.03;;;22.55;76.20
39411;BME280;26579;43.238;23.124;2023-08-06T03:28:18;95797.03;;;22.65;75.88
39411;BME280;26579;43.238;23.124;2023-08-06T03:30:45;95788.84;;;22.54;76.18
39411;BME280;26579;43.238;23.124;2023-08-06T03:33:12;95775.34;;;22.56;77.08
39411;BME280;26579;43.238;23.124;2023-08-06T03:35:38;95761.97;;;22.51;76.38
39411;BME280;26579;43.238;23.124;2023-08-06T03:38:04;95754.47;;;22.59;75.71
39411;BME280;26579;43.238;23.124;2023-08-06T03:40:30;95762.56;;;22.65;75.33
39411;BME280;26579;43.238;23.124;2023-08-06T03:42:57;95746.75;;;22.46;76.05
39411;BME280;26579;43.238;23.124;2023-08-06T03:45:22;95761.16;;;22.50;77.18
39411;BME280;26579;43.238;23.124;2023-08-06T03:47:48;95763.91;;;22.44;75.79
39411;BME280;26579;43.238;23.124;2023-08-06T03:50:15;95778.09;;;22.37;75.87
39411;BME280;26579;43.238;23.124;2023-08-06T03:52:40;95773.31;;;22.28;77.27
39411;BME280;26579;43.238;23.124;2023-08-06T03:55:06;95771.50;;;22.28;77.56
39411;BME280;26579;43.238;23.124;2023-08-06T03:57:32;95751.91;;;22.29;77.18
39411;BME280;26579;43.238;23.124;2023-08-06T03:59:58;95734.59;;;22.27;76.56
39411;BME280;26579;43.238;23.124;2023-08-06T04:02:28;95729.44;;;22.32;76.11
39411;BME280;26579;43.238;23.124;2023-08-06T04:04:53;95725.97;;;22.31;75.39
39411;BME280;26579;43.238;23.124;2023-08-06T04:07:19;95727.06;;;22.12;76.43
39411;BME280;26579;43.238;23.124;2023-08-06T04:09:56;95735.00;;;22.00;76.80
39411;BME280;26579;43.238;23.124;2023-08-06T04:12:22;95746.81;;;21.86;76.94
39411;BME280;26579;43.238;23.124;2023-08-06T04:14:47;95750.41;;;21.91;78.17
39411;BME280;26579;43.238;23.124;2023-08-06T04:17:13;95735.66;;;21.96;77.43
39411;BME280;26579;43.238;23.124;2023-08-06T04:19:39;95745.91;;;21.92;77.30
39411;BME280;26579;43.238;23.124;2023-08-06T04:22:05;95735.63;;;21.84;77.98
39411;BME280;26579;43.238;23.124;2023-08-06T04:24:30;95749.22;;;21.87;78.19
39411;BME280;26579;43.238;23.124;2023-08-06T04:26:56;95746.09;;;21.79;77.44
39411;BME280;26579;43.238;23.124;2023-08-06T04:29:22;95759.47;;;21.84;78.82
39411;BME280;26579;43.238;23.124;2023-08-06T04:34:13;95752.78;;;21.81;79.13
39411;BME280;26579;43.238;23.124;2023-08-06T04:36:39;95733.31;;;21.87;78.12
39411;BME280;26579;43.238;23.124;2023-08-06T04:39:07;95746.50;;;21.94;77.51
39411;BME280;26579;43.238;23.124;2023-08-06T04:41:33;95749.81;;;21.89;77.68
39411;BME280;26579;43.238;23.124;2023-08-06T04:43:59;95753.41;;;21.95;78.00
39411;BME280;26579;43.238;23.124;2023-08-06T04:46:25;95746.94;;;21.91;78.25
39411;BME280;26579;43.238;23.124;2023-08-06T04:48:50;95759.16;;;21.92;79.00
39411;BME280;26579;43.238;23.124;2023-08-06T04:51:16;95757.44;;;21.98;78.39
39411;BME280;26579;43.238;23.124;2023-08-06T04:53:42;95753.63;;;21.93;78.76
39411;BME280;26579;43.238;23.124;2023-08-06T04:56:07;95749.59;;;21.91;78.25
39411;BME280;26579;43.238;23.124;2023-08-06T04:58:33;95758.25;;;21.98;78.39
39411;BME280;26579;43.238;23.124;2023-08-06T05:00:59;95752.84;;;22.05;78.48
39411;BME280;26579;43.238;23.124;2023-08-06T05:03:24;95746.66;;;22.11;77.92
39411;BME280;26579;43.238;23.124;2023-08-06T05:05:50;95748.47;;;22.10;78.10
39411;BME280;26579;43.238;23.124;2023-08-06T05:08:16;95741.13;;;22.12;76.79
39411;BME280;26579;43.238;23.124;2023-08-06T05:10:43;95731.44;;;22.06;77.84
39411;BME280;26579;43.238;23.124;2023-08-06T05:13:08;95729.94;;;22.10;76.97
39411;BME280;26579;43.238;23.124;2023-08-06T05:15:34;95726.78;;;22.02;78.66
39411;BME280;26579;43.238;23.124;2023-08-06T05:18:00;95720.47;;;22.03;78.01
39411;BME280;26579;43.238;23.124;2023-08-06T05:20:25;95713.31;;;21.91;78.49
39411;BME280;26579;43.238;23.124;2023-08-06T05:22:51;95717.25;;;22.01;78.56
39411;BME280;26579;43.238;23.124;2023-08-06T05:25:17;95714.25;;;21.97;78.43
39411;BME280;26579;43.238;23.124;2023-08-06T05:27:42;95716.31;;;22.07;76.94
39411;BME280;26579;43.238;23.124;2023-08-06T05:30:09;95733.16;;;22.12;76.63
39411;BME280;26579;43.238;23.124;2023-08-06T05:32:34;95734.22;;;22.11;76.78
39411;BME280;26579;43.238;23.124;2023-08-06T05:35:00;95732.13;;;22.13;77.37
39411;BME280;26579;43.238;23.124;2023-08-06T05:37:26;95713.34;;;22.03;77.86
39411;BME280;26579;43.238;23.124;2023-08-06T05:39:51;95715.03;;;21.98;77.75
39411;BME280;26579;43.238;23.124;2023-08-06T05:42:17;95726.59;;;22.03;77.31
39411;BME280;26579;43.238;23.124;2023-08-06T05:44:43;95714.69;;;21.94;77.96
39411;BME280;26579;43.238;23.124;2023-08-06T05:47:08;95713.19;;;21.98;77.86
39411;BME280;26579;43.238;23.124;2023-08-06T05:49:34;95717.97;;;22.08;78.63
39411;BME280;26579;43.238;23.124;2023-08-06T05:52:00;95711.94;;;22.01;78.56
39411;BME280;26579;43.238;23.124;2023-08-06T05:54:25;95729.38;;;22.08;78.60
39411;BME280;26579;43.238;23.124;2023-08-06T05:56:51;95737.84;;;22.17;77.83
39411;BME280;26579;43.238;23.124;2023-08-06T05:59:17;95740.31;;;22.12;77.97
39411;BME280;26579;43.238;23.124;2023-08-06T06:01:42;95737.59;;;22.19;77.96
39411;BME280;26579;43.238;23.124;2023-08-06T06:04:08;95741.50;;;22.28;78.95
39411;BME280;26579;43.238;23.124;2023-08-06T06:06:34;95741.06;;;22.43;78.08
39411;BME280;26579;43.238;23.124;2023-08-06T06:08:59;95741.19;;;22.36;76.83
39411;BME280;26579;43.238;23.124;2023-08-06T06:11:25;95743.28;;;22.46;77.32
39411;BME280;26579;43.238;23.124;2023-08-06T06:13:51;95735.78;;;22.43;76.99
39411;BME280;26579;43.238;23.124;2023-08-06T06:16:17;95748.94;;;22.49;77.26
39411;BME280;26579;43.238;23.124;2023-08-06T06:18:43;95751.78;;;22.36;76.41
39411;BME280;26579;43.238;23.124;2023-08-06T06:21:10;95740.53;;;22.64;76.47
39411;BME280;26579;43.238;23.124;2023-08-06T06:23:36;95735.81;;;22.78;76.90
39411;BME280;26579;43.238;23.124;2023-08-06T06:26:01;95740.66;;;22.81;76.29
39411;BME280;26579;43.238;23.124;2023-08-06T06:28:27;95771.13;;;23.02;74.99
39411;BME280;26579;43.238;23.124;2023-08-06T06:30:53;95784.59;;;23.12;75.58
39411;BME280;26579;43.238;23.124;2023-08-06T06:33:18;95788.78;;;22.96;74.47
39411;BME280;26579;43.238;23.124;2023-08-06T06:35:44;95799.03;;;23.04;75.30
39411;BME280;26579;43.238;23.124;2023-08-06T06:38:10;95808.72;;;23.11;75.50
39411;BME280;26579;43.238;23.124;2023-08-06T06:40:35;95811.38;;;22.99;75.54
39411;BME280;26579;43.238;23.124;2023-08-06T06:43:01;95801.13;;;23.02;74.56
39411;BME280;26579;43.238;23.124;2023-08-06T06:45:27;95814.72;;;23.06;74.74
39411;BME280;26579;43.238;23.124;2023-08-06T06:47:52;95817.50;;;22.99;75.12
39411;BME280;26579;43.238;23.124;2023-08-06T06:50:18;95817.63;;;23.04;76.11
39411;BME280;26579;43.238;23.124;2023-08-06T06:52:44;95812.03;;;22.94;74.69
39411;BME280;26579;43.238;23.124;2023-08-06T06:55:09;95814.25;;;22.97;75.53
39411;BME280;26579;43.238;23.124;2023-08-06T06:57:35;95818.78;;;22.97;75.00
39411;BME280;26579;43.238;23.124;2023-08-06T07:00:01;95819.81;;;22.96;74.26
39411;BME280;26579;43.238;23.124;2023-08-06T07:02:27;95823.91;;;22.92;74.68
39411;BME280;26579;43.238;23.124;2023-08-06T07:04:53;95816.66;;;22.75;74.53
39411;BME280;26579;43.238;23.124;2023-08-06T07:07:18;95823.44;;;22.71;75.08
39411;BME280;26579;43.238;23.124;2023-08-06T07:09:44;95826.09;;;22.71;75.03
39411;BME280;26579;43.238;23.124;2023-08-06T07:12:10;95840.06;;;22.78;74.37
39411;BME280;26579;43.238;23.124;2023-08-06T07:14:36;95841.09;;;22.77;74.96
39411;BME280;26579;43.238;23.124;2023-08-06T07:17:02;95833.03;;;22.72;74.31
39411;BME280;26579;43.238;23.124;2023-08-06T07:19:28;95843.41;;;22.86;74.78
39411;BME280;26579;43.238;23.124;2023-08-06T07:21:54;95844.34;;;22.79;74.10
39411;BME280;26579;43.238;23.124;2023-08-06T07:24:19;95845.72;;;22.70;75.04
39411;BME280;26579;43.238;23.124;2023-08-06T07:26:45;95842.00;;;22.59;75.35
39411;BME280;26579;43.238;23.124;2023-08-06T07:29:11;95852.38;;;22.61;75.33
39411;BME280;26579;43.238;23.124;2023-08-06T07:31:36;95858.09;;;22.34;75.88
39411;BME280;26579;43.238;23.124;2023-08-06T07:34:02;95858.31;;;22.33;75.67
39411;BME280;26579;43.238;23.124;2023-08-06T07:36:28;95853.59;;;22.35;75.72
39411;BME280;26579;43.238;23.124;2023-08-06T07:38:53;95867.09;;;22.45;77.14
39411;BME280;26579;43.238;23.124;2023-08-06T07:41:19;95870.47;;;22.52;75.45
39411;BME280;26579;43.238;23.124;2023-08-06T07:43:45;95857.06;;;22.47;74.59
39411;BME280;26579;43.238;23.124;2023-08-06T07:46:10;95872.69;;;22.67;74.76
39411;BME280;26579;43.238;23.124;2023-08-06T07:48:36;95881.47;;;22.68;74.18
39411;BME280;26579;43.238;23.124;2023-08-06T07:51:02;95876.28;;;22.73;73.79
39411;BME280;26579;43.238;23.124;2023-08-06T07:53:27;95873.75;;;22.78;75.33
39411;BME280;26579;43.238;23.124;2023-08-06T07:55:53;95876.97;;;22.80;75.29
39411;BME280;26579;43.238;23.124;2023-08-06T07:58:20;95878.25;;;22.77;74.61
39411;BME280;26579;43.238;23.124;2023-08-06T08:00:46;95874.44;;;22.73;74.87
39411;BME280;26579;43.238;23.124;2023-08-06T08:03:13;95875.03;;;22.75;74.90
39411;BME280;26579;43.238;23.124;2023-08-06T08:05:40;95865.34;;;22.81;74.42
39411;BME280;26579;43.238;23.124;2023-08-06T08:08:06;95855.88;;;22.85;75.52
39411;BME280;26579;43.238;23.124;2023-08-06T08:10:32;95862.03;;;22.97;73.78
39411;BME280;26579;43.238;23.124;2023-08-06T08:12:58;95843.19;;;22.87;74.55
39411;BME280;26579;43.238;23.124;2023-08-06T08:15:25;95853.97;;;23.16;71.70
39411;BME280;26579;43.238;23.124;2023-08-06T08:17:50;95842.31;;;23.05;74.21
39411;BME280;26579;43.238;23.124;2023-08-06T08:20:16;95860.53;;;23.37;73.54
39411;BME280;26579;43.238;23.124;2023-08-06T08:22:42;95856.94;;;23.55;71.21
39411;BME280;26579;43.238;23.124;2023-08-06T08:25:08;95845.81;;;23.69;71.12
39411;BME280;26579;43.238;23.124;2023-08-06T08:27:33;95863.81;;;23.91;70.11
39411;BME280;26579;43.238;23.124;2023-08-06T08:29:59;95858.28;;;23.92;69.88
39411;BME280;26579;43.238;23.124;2023-08-06T08:32:25;95856.28;;;24.00;70.00
39411;BME280;26579;43.238;23.124;2023-08-06T08:34:51;95859.00;;;24.16;70.04
39411;BME280;26579;43.238;23.124;2023-08-06T08:37:16;95857.66;;;24.31;67.62
39411;BME280;26579;43.238;23.124;2023-08-06T08:39:42;95853.53;;;24.52;69.03
39411;BME280;26579;43.238;23.124;2023-08-06T08:42:10;95851.22;;;24.72;67.79
39411;BME280;26579;43.238;23.124;2023-08-06T08:44:36;95840.56;;;25.06;67.24
39411;BME280;26579;43.238;23.124;2023-08-06T08:47:02;95846.59;;;25.52;63.38
39411;BME280;26579;43.238;23.124;2023-08-06T08:49:28;95849.38;;;25.62;63.61
39411;BME280;26579;43.238;23.124;2023-08-06T08:51:56;95850.34;;;25.34;62.03
39411;BME280;26579;43.238;23.124;2023-08-06T08:54:23;95835.66;;;25.53;62.66
39411;BME280;26579;43.238;23.124;2023-08-06T08:56:49;95842.75;;;25.65;61.58
39411;BME280;26579;43.238;23.124;2023-08-06T08:59:15;95835.41;;;25.77;61.50
39411;BME280;26579;43.238;23.124;2023-08-06T09:01:42;95837.31;;;25.99;60.79
39411;BME280;26579;43.238;23.124;2023-08-06T09:04:09;95833.75;;;26.15;61.44
39411;BME280;26579;43.238;23.124;2023-08-06T09:06:37;95837.03;;;26.22;60.66
39411;BME280;26579;43.238;23.124;2023-08-06T09:09:09;95836.81;;;26.29;58.95
39411;BME280;26579;43.238;23.124;2023-08-06T09:11:43;95829.59;;;26.51;59.84
39411;BME280;26579;43.238;23.124;2023-08-06T09:14:09;95836.66;;;26.62;57.82
39411;BME280;26579;43.238;23.124;2023-08-06T09:16:35;95813.03;;;26.81;56.89
39411;BME280;26579;43.238;23.124;2023-08-06T09:19:10;95820.47;;;27.12;58.20
39411;BME280;26579;43.238;23.124;2023-08-06T09:21:40;95813.91;;;27.29;56.63
39411;BME280;26579;43.238;23.124;2023-08-06T09:24:13;95798.16;;;27.33;57.74
39411;BME280;26579;43.238;23.124;2023-08-06T09:26:44;95793.97;;;27.47;55.09
39411;BME280;26579;43.238;23.124;2023-08-06T09:29:11;95794.13;;;27.30;54.33
39411;BME280;26579;43.238;23.124;2023-08-06T09:31:49;95797.63;;;27.31;54.20
39411;BME280;26579;43.238;23.124;2023-08-06T09:36:48;95805.09;;;27.34;52.89
39411;BME280;26579;43.238;23.124;2023-08-06T09:39:18;95786.00;;;27.63;54.44
39411;BME280;26579;43.238;23.124;2023-08-06T09:41:45;95794.16;;;27.88;49.85
39411;BME280;26579;43.238;23.124;2023-08-06T09:44:18;95798.06;;;27.70;51.23
39411;BME280;26579;43.238;23.124;2023-08-06T09:46:52;95801.94;;;27.42;49.89
39411;BME280;26579;43.238;23.124;2023-08-06T09:49:20;95804.63;;;27.42;49.40
39411;BME280;26579;43.238;23.124;2023-08-06T09:51:46;95803.47;;;27.23;51.10
39411;BME280;26579;43.238;23.124;2023-08-06T09:54:12;95811.94;;;27.15;53.26
39411;BME280;26579;43.238;23.124;2023-08-06T09:56:42;95793.94;;;27.00;52.49
39411;BME280;26579;43.238;23.124;2023-08-06T09:59:08;95796.28;;;26.91;52.86
39411;BME280;26579;43.238;23.124;2023-08-06T10:01:35;95804.25;;;26.86;53.65
39411;BME280;26579;43.238;23.124;2023-08-06T10:04:03;95805.81;;;26.77;54.35
39411;BME280;26579;43.238;23.124;2023-08-06T10:06:29;95808.56;;;26.92;52.77
39411;BME280;26579;43.238;23.124;2023-08-06T10:08:55;95816.22;;;27.16;52.33
39411;BME280;26579;43.238;23.124;2023-08-06T10:11:23;95823.50;;;27.20;51.15
39411;BME280;26579;43.238;23.124;2023-08-06T10:13:54;95828.94;;;27.03;52.05
39411;BME280;26579;43.238;23.124;2023-08-06T10:16:21;95820.34;;;26.96;53.47
39411;BME280;26579;43.238;23.124;2023-08-06T10:18:48;95832.09;;;26.95;52.05
39411;BME280;26579;43.238;23.124;2023-08-06T10:21:15;95826.09;;;26.78;54.80
39411;BME280;26579;43.238;23.124;2023-08-06T10:23:41;95826.78;;;26.63;57.47
39411;BME280;26579;43.238;23.124;2023-08-06T10:26:07;95821.50;;;26.46;58.58
39411;BME280;26579;43.238;23.124;2023-08-06T10:28:37;95806.31;;;26.47;57.12
39411;BME280;26579;43.238;23.124;2023-08-06T10:31:03;95819.00;;;26.61;56.45
39411;BME280;26579;43.238;23.124;2023-08-06T10:33:45;95820.31;;;26.91;55.09
39411;BME280;26579;43.238;23.124;2023-08-06T10:36:11;95815.78;;;27.29;55.50
39411;BME280;26579;43.238;23.124;2023-08-06T10:38:48;95818.59;;;27.60;52.42
39411;BME280;26579;43.238;23.124;2023-08-06T10:41:28;95818.13;;;27.73;51.32
39411;BME280;26579;43.238;23.124;2023-08-06T10:44:07;95817.63;;;27.76;50.80
39411;BME280;26579;43.238;23.124;2023-08-06T10:46:33;95801.63;;;27.81;49.37
39411;BME280;26579;43.238;23.124;2023-08-06T10:48:58;95803.56;;;28.06;50.43
39411;BME280;26579;43.238;23.124;2023-08-06T10:51:24;95810.28;;;28.14;51.78
39411;BME280;26579;43.238;23.124;2023-08-06T10:53:50;95817.28;;;28.40;49.78
39411;BME280;26579;43.238;23.124;2023-08-06T10:56:18;95803.34;;;28.28;49.87
39411;BME280;26579;43.238;23.124;2023-08-06T10:58:45;95805.03;;;27.76;50.61
39411;BME280;26579;43.238;23.124;2023-08-06T11:01:11;95806.66;;;27.72;51.20
39411;BME280;26579;43.238;23.124;2023-08-06T11:03:38;95811.38;;;27.60;51.20
39411;BME280;26579;43.238;23.124;2023-08-06T11:06:06;95815.78;;;27.29;51.53
39411;BME280;26579;43.238;23.124;2023-08-06T11:08:37;95826.91;;;27.16;54.81
39411;BME280;26579;43.238;23.124;2023-08-06T11:11:10;95846.84;;;27.08;55.11
39411;BME280;26579;43.238;23.124;2023-08-06T11:13:36;95850.53;;;26.97;60.06
39411;BME280;26579;43.238;23.124;2023-08-06T11:16:05;95863.41;;;26.73;63.11
39411;BME280;26579;43.238;23.124;2023-08-06T11:18:32;95874.22;;;26.56;63.51
39411;BME280;26579;43.238;23.124;2023-08-06T11:21:01;95876.84;;;26.51;60.02
39411;BME280;26579;43.238;23.124;2023-08-06T11:23:30;95869.75;;;25.73;60.88
39411;BME280;26579;43.238;23.124;2023-08-06T11:25:57;95873.41;;;25.12;62.11
39411;BME280;26579;43.238;23.124;2023-08-06T11:28:23;95878.94;;;24.31;63.22
39411;BME280;26579;43.238;23.124;2023-08-06T11:30:49;95881.97;;;23.94;63.67
39411;BME280;26579;43.238;23.124;2023-08-06T11:33:23;95880.03;;;24.18;63.94
39411;BME280;26579;43.238;23.124;2023-08-06T11:35:49;95883.72;;;24.74;62.18
39411;BME280;26579;43.238;23.124;2023-08-06T11:38:15;95877.53;;;25.02;60.95
39411;BME280;26579;43.238;23.124;2023-08-06T11:40:40;95883.00;;;25.13;60.18
39411;BME280;26579;43.238;23.124;2023-08-06T11:43:06;95872.75;;;25.38;62.24
39411;BME280;26579;43.238;23.124;2023-08-06T11:45:35;95874.31;;;25.34;61.96
39411;BME280;26579;43.238;23.124;2023-08-06T11:48:01;95852.78;;;25.58;62.75
39411;BME280;26579;43.238;23.124;2023-08-06T11:50:27;95874.56;;;26.15;62.39
39411;BME280;26579;43.238;23.124;2023-08-06T11:52:58;95867.88;;;26.40;59.83
39411;BME280;26579;43.238;23.124;2023-08-06T11:55:25;95852.81;;;26.51;57.36
39411;BME280;26579;43.238;23.124;2023-08-06T11:57:51;95872.84;;;26.80;56.50
39411;BME280;26579;43.238;23.124;2023-08-06T12:00:17;95863.06;;;26.91;56.06
39411;BME280;26579;43.238;23.124;2023-08-06T12:02:45;95851.47;;;26.80;57.63
39411;BME280;26579;43.238;23.124;2023-08-06T12:05:15;95847.31;;;26.95;58.36
39411;BME280;26579;43.238;23.124;2023-08-06T12:07:46;95852.31;;;27.18;57.27
39411;BME280;26579;43.238;23.124;2023-08-06T12:10:13;95847.34;;;27.37;57.71
39411;BME280;26579;43.238;23.124;2023-08-06T12:12:39;95852.00;;;27.15;56.67
39411;BME280;26579;43.238;23.124;2023-08-06T12:15:06;95839.28;;;27.27;55.99
39411;BME280;26579;43.238;23.124;2023-08-06T12:17:32;95848.34;;;27.21;56.09
39411;BME280;26579;43.238;23.124;2023-08-06T12:19:58;95853.16;;;27.24;55.95
39411;BME280;26579;43.238;23.124;2023-08-06T12:22:24;95850.72;;;27.22;56.24
39411;BME280;26579;43.238;23.124;2023-08-06T12:24:50;95845.19;;;27.29;54.95
39411;BME280;26579;43.238;23.124;2023-08-06T12:27:16;95831.50;;;27.20;53.13
39411;BME280;26579;43.238;23.124;2023-08-06T12:29:43;95839.44;;;27.52;53.47
39411;BME280;26579;43.238;23.124;2023-08-06T12:32:12;95837.88;;;27.62;53.93
39411;BME280;26579;43.238;23.124;2023-08-06T12:34:39;95819.97;;;27.62;52.25
39411;BME280;26579;43.238;23.124;2023-08-06T12:37:05;95821.63;;;27.21;51.91
39411;BME280;26579;43.238;23.124;2023-08-06T12:39:31;95823.28;;;26.95;51.73
39411;BME280;26579;43.238;23.124;2023-08-06T12:41:56;95812.91;;;26.66;52.41
39411;BME280;26579;43.238;23.124;2023-08-06T12:44:23;95806.78;;;26.66;54.16
39411;BME280;26579;43.238;23.124;2023-08-06T12:46:49;95806.50;;;26.67;52.80
39411;BME280;26579;43.238;23.124;2023-08-06T12:49:14;95790.16;;;26.58;54.20
39411;BME280;26579;43.238;23.124;2023-08-06T12:51:40;95797.09;;;26.92;54.87
39411;BME280;26579;43.238;23.124;2023-08-06T12:54:06;95797.94;;;26.97;52.00
39411;BME280;26579;43.238;23.124;2023-08-06T12:56:31;95801.72;;;27.06;51.60